Kota Kinabalu International Airport Kota Kinabalu MY
ICAO: WBKK
IATA: BJI
Category: Medium
Scheduled Services: Yes

Elevation: 10 ft
TransAlt. 11000 ft.

Airport Communications:
KINABALU APP:119.1
KINABALU RDO:682.5
KINABALU CON:126.1
ATIS:127.4
KINABALU GND:121.6
KINABALU:133.3
KINABALU TWR:118.3

WBKK Zoom In..

If you have problems with the map follow the link
https://www.worldairports.se/pages/airport.php?
ICAO=WBKK

Runways:

(A) RW 02 length 12402 ft width 148 ft
ILS 108.10 / hdg 23

(B) RW 20 length 12402 ft width 148 ft
---- / hdg 203

Location; WBKK
Day. 14 / Time. 09.30 Zulu
* QNH: 1007
* Temperature: 30° c. 86°f.
* Wind from: 300° Speed 04 kn.
Dewpoint: 25° c.
Visibility: 10 km or more.
Clouds: Few 1400 ft.
Clouds: Scattered 14000 ft.
Clouds: Broken 29000 ft.
No significant changes expected in the near future.

WBKK 140930Z 30004KT 230V360 9999 FEW014 SCT140 BKN290 30/25 Q1007 NOSIG


Wind From 300°
Speed 04 kn.

 
 
jpsmedia worldairports.se 2019   terms of use